Time;durP1;ratioP1;P1;durP2;ratioP2;P2;SDS_P1;SDS_P2;PMS_P1;PMS_P2;Temp;Humidity;BMP_temperature;BMP_pressure;BME280_temperature;BME280_humidity;BME280_pressure;Samples;Min_cycle;Max_cycle;Signal;HPM_P1;HPM_P2
2023/07/25 00:01:17;;;;;;;3.40;2.17;;;20.10;94.00;;;;;;5077620;28;20020;-80
2023/07/25 00:03:43;;;;;;;5.50;2.70;;;20.10;94.00;;;;;;5084411;28;20020;-81
2023/07/25 00:06:09;;;;;;;7.03;2.55;;;20.10;94.00;;;;;;5083215;28;20016;-80
2023/07/25 00:08:35;;;;;;;4.85;2.38;;;20.10;94.00;;;;;;5083249;28;20025;-80
2023/07/25 00:11:00;;;;;;;5.45;2.10;;;20.10;94.00;;;;;;5082392;28;20193;-80
2023/07/25 00:13:26;;;;;;;4.07;2.40;;;20.10;94.00;;;;;;5080976;28;20488;-81
2023/07/25 00:15:52;;;;;;;4.15;2.10;;;20.10;94.00;;;;;;5078747;28;20503;-80
2023/07/25 00:18:18;;;;;;;5.57;2.28;;;20.10;94.00;;;;;;5079574;28;20102;-81
2023/07/25 00:20:43;;;;;;;5.10;2.45;;;20.10;94.00;;;;;;5083379;28;20554;-81
2023/07/25 00:23:09;;;;;;;8.10;2.85;;;20.10;94.00;;;;;;5084281;28;20460;-80
2023/07/25 00:25:34;;;;;;;3.50;2.30;;;20.10;93.90;;;;;;5084473;28;20020;-80
2023/07/25 00:28:00;;;;;;;9.93;2.33;;;20.10;93.90;;;;;;5081630;28;20016;-80
2023/07/25 00:30:26;;;;;;;7.97;2.58;;;20.10;93.90;;;;;;5079040;28;20032;-80
2023/07/25 00:32:51;;;;;;;10.13;2.35;;;20.10;93.90;;;;;;5079101;28;20024;-79
2023/07/25 00:35:17;;;;;;;4.93;2.30;;;20.10;93.90;;;;;;5079580;28;20024;-81
2023/07/25 00:37:43;;;;;;;5.63;2.70;;;20.10;93.90;;;;;;5079052;28;20099;-80
2023/07/25 00:40:08;;;;;;;5.22;2.58;;;20.10;93.90;;;;;;5077986;28;20074;-81
2023/07/25 00:42:34;;;;;;;6.25;2.70;;;20.10;93.90;;;;;;5079134;28;20025;-80
2023/07/25 00:45:00;;;;;;;6.70;3.42;;;20.10;93.90;;;;;;5076113;28;20025;-80
2023/07/25 00:47:26;;;;;;;4.88;2.78;;;20.10;93.90;;;;;;5076106;28;20021;-80
2023/07/25 00:49:54;;;;;;;4.63;2.90;;;20.10;93.90;;;;;;5077179;28;20028;-81
2023/07/25 00:52:19;;;;;;;7.57;2.55;;;20.10;93.90;;;;;;5075887;28;20031;-81
2023/07/25 00:54:47;;;;;;;5.22;2.65;;;20.10;93.90;;;;;;5075790;28;20468;-80
2023/07/25 00:57:15;;;;;;;8.55;2.92;;;20.10;93.90;;;;;;5084725;28;20027;-80
2023/07/25 00:59:41;;;;;;;5.97;3.35;;;20.10;93.90;;;;;;5078302;28;20036;-80
2023/07/25 01:02:07;;;;;;;9.15;2.88;;;20.10;93.90;;;;;;5079992;28;20020;-80
2023/07/25 01:04:33;;;;;;;8.15;3.35;;;20.10;93.90;;;;;;5081502;28;20032;-80
2023/07/25 01:07:00;;;;;;;6.75;3.20;;;20.10;93.90;;;;;;5076602;28;20468;-81
2023/07/25 01:09:40;;;;;;;5.57;3.10;;;20.10;93.90;;;;;;5075601;28;20036;-80
2023/07/25 01:12:07;;;;;;;5.47;3.15;;;20.10;93.90;;;;;;5072207;28;20025;-80
2023/07/25 01:14:34;;;;;;;5.63;3.33;;;20.10;93.90;;;;;;5079658;28;20017;-81
2023/07/25 01:17:11;;;;;;;7.40;3.47;;;20.10;93.90;;;;;;5077898;28;20618;-80
2023/07/25 01:19:40;;;;;;;10.25;3.50;;;20.10;93.90;;;;;;5082526;28;20127;-81
2023/07/25 01:22:07;;;;;;;11.63;3.40;;;20.10;93.90;;;;;;5086796;28;20024;-81
2023/07/25 01:24:34;;;;;;;6.15;3.13;;;20.10;94.00;;;;;;5079631;28;20032;-81
2023/07/25 01:27:01;;;;;;;8.00;3.80;;;20.10;94.00;;;;;;5076354;28;20021;-81
2023/07/25 01:29:26;;;;;;;5.95;2.80;;;20.10;94.00;;;;;;5078226;28;20028;-81
2023/07/25 01:31:52;;;;;;;15.02;3.25;;;20.10;94.00;;;;;;5083932;28;20366;-81
2023/07/25 01:34:17;;;;;;;6.28;3.22;;;20.10;94.00;;;;;;5083997;28;20483;-81
2023/07/25 01:36:43;;;;;;;8.55;3.55;;;20.10;94.00;;;;;;5081624;28;20062;-81
2023/07/25 01:39:09;;;;;;;7.60;3.13;;;20.10;94.00;;;;;;5078906;28;20031;-80
2023/07/25 01:41:34;;;;;;;9.77;3.40;;;20.10;94.00;;;;;;5078317;28;20495;-80
2023/07/25 01:44:00;;;;;;;10.25;3.38;;;20.10;94.00;;;;;;5075609;28;20052;-80
2023/07/25 01:46:25;;;;;;;5.50;3.10;;;20.10;94.00;;;;;;5084169;28;20518;-80
2023/07/25 01:48:51;;;;;;;4.50;2.55;;;20.10;94.00;;;;;;5080770;28;20476;-81
2023/07/25 01:51:16;;;;;;;5.55;2.72;;;20.10;94.00;;;;;;5082235;28;20079;-81
2023/07/25 01:53:42;;;;;;;5.30;2.90;;;20.10;94.00;;;;;;5078284;28;20017;-80
2023/07/25 01:56:08;;;;;;;5.78;2.67;;;20.10;94.00;;;;;;5077108;28;20016;-80
2023/07/25 01:58:33;;;;;;;7.00;2.90;;;20.10;94.00;;;;;;5076222;28;20043;-81
2023/07/25 02:00:59;;;;;;;5.57;2.38;;;20.10;94.00;;;;;;5074351;28;20031;-81
2023/07/25 02:03:28;;;;;;;10.82;2.83;;;20.10;94.00;;;;;;5086284;28;20499;-81
2023/07/25 02:05:53;;;;;;;4.47;2.65;;;20.10;94.00;;;;;;5079436;28;20025;-81
2023/07/25 02:08:19;;;;;;;6.07;2.72;;;20.10;94.00;;;;;;5079819;28;20126;-80
2023/07/25 02:10:45;;;;;;;8.13;2.67;;;20.10;94.00;;;;;;5076900;28;20032;-81
2023/07/25 02:13:10;;;;;;;5.88;2.53;;;20.00;93.90;;;;;;5077737;28;20032;-80
2023/07/25 02:15:37;;;;;;;8.88;2.90;;;20.10;94.00;;;;;;5074873;28;20411;-81
2023/07/25 02:18:03;;;;;;;11.35;2.92;;;20.10;93.90;;;;;;5087024;28;20426;-80
2023/07/25 02:20:32;;;;;;;8.18;3.22;;;20.00;93.90;;;;;;5083583;28;20055;-80
2023/07/25 02:22:58;;;;;;;5.28;2.92;;;20.00;93.90;;;;;;5080096;28;20016;-82
2023/07/25 02:25:25;;;;;;;6.45;3.03;;;20.00;93.90;;;;;;5090151;28;20465;-80
2023/07/25 02:27:51;;;;;;;6.40;3.67;;;20.00;93.90;;;;;;5077085;28;20025;-80
2023/07/25 02:30:17;;;;;;;11.57;3.90;;;20.00;93.90;;;;;;5076206;28;20488;-80
2023/07/25 02:32:42;;;;;;;7.80;3.53;;;20.00;93.90;;;;;;5086140;28;20020;-80
2023/07/25 02:35:08;;;;;;;7.95;3.50;;;20.00;93.90;;;;;;5078724;28;20083;-80
2023/07/25 02:37:34;;;;;;;10.82;3.55;;;20.00;93.90;;;;;;5088765;28;20024;-80
2023/07/25 02:39:59;;;;;;;13.80;4.20;;;20.00;93.90;;;;;;5079285;28;20036;-81
2023/07/25 02:42:25;;;;;;;6.97;3.33;;;20.00;93.90;;;;;;5084529;28;20024;-80
2023/07/25 02:44:50;;;;;;;7.70;3.90;;;20.00;93.90;;;;;;5077824;28;20020;-80
2023/07/25 02:47:16;;;;;;;7.93;3.72;;;20.00;93.90;;;;;;5082769;28;20469;-81
2023/07/25 02:49:41;;;;;;;9.02;3.72;;;20.00;93.90;;;;;;5078622;28;20082;-80
2023/07/25 02:52:07;;;;;;;9.00;3.30;;;20.00;93.90;;;;;;5086740;28;20017;-81
2023/07/25 02:54:33;;;;;;;6.05;2.55;;;20.00;93.90;;;;;;5087238;28;20020;-81
2023/07/25 02:56:58;;;;;;;6.65;3.20;;;20.00;93.90;;;;;;5077255;28;20028;-80
2023/07/25 02:59:24;;;;;;;5.55;3.28;;;20.00;93.90;;;;;;5076455;28;20115;-80
2023/07/25 03:01:49;;;;;;;8.32;3.70;;;20.00;93.90;;;;;;5081344;28;20028;-81
2023/07/25 03:04:15;;;;;;;6.30;3.10;;;20.00;93.90;;;;;;5083807;28;20024;-81
2023/07/25 03:06:41;;;;;;;6.55;3.20;;;20.00;93.90;;;;;;5080632;28;20028;-81
2023/07/25 03:09:06;;;;;;;10.38;3.67;;;20.00;93.90;;;;;;5082981;28;20033;-81
2023/07/25 03:11:32;;;;;;;4.47;3.28;;;20.00;93.90;;;;;;5080766;28;20026;-81
2023/07/25 03:13:58;;;;;;;7.57;3.40;;;20.00;93.90;;;;;;5079008;28;20056;-81
2023/07/25 03:16:23;;;;;;;5.47;3.00;;;20.00;93.90;;;;;;5081876;28;20032;-81
2023/07/25 03:18:49;;;;;;;5.38;3.03;;;20.00;94.20;;;;;;5085688;28;20031;-80
2023/07/25 03:21:15;;;;;;;7.95;3.20;;;20.00;94.20;;;;;;5079840;28;20076;-80
2023/07/25 03:23:40;;;;;;;6.57;3.30;;;20.00;93.90;;;;;;5082080;28;20024;-81
2023/07/25 03:26:06;;;;;;;11.57;3.40;;;20.00;93.90;;;;;;5084349;28;20067;-80
2023/07/25 03:28:31;;;;;;;7.97;3.50;;;20.00;93.90;;;;;;5079045;28;20031;-80
2023/07/25 03:30:57;;;;;;;7.05;3.40;;;20.00;93.90;;;;;;5080934;28;20031;-81
2023/07/25 03:33:23;;;;;;;10.05;3.40;;;20.00;94.20;;;;;;5085950;28;20032;-81
2023/07/25 03:35:48;;;;;;;6.90;3.20;;;20.00;93.90;;;;;;5081812;28;20024;-80
2023/07/25 03:38:14;;;;;;;5.50;2.85;;;20.00;93.90;;;;;;5078670;28;20016;-80
2023/07/25 03:40:39;;;;;;;4.97;2.85;;;20.00;93.90;;;;;;5089111;28;20123;-81
2023/07/25 03:43:05;;;;;;;10.20;3.55;;;20.00;93.90;;;;;;5085150;28;20024;-81
2023/07/25 03:45:31;;;;;;;5.68;3.13;;;20.00;93.90;;;;;;5080943;28;20016;-82
2023/07/25 03:47:56;;;;;;;9.27;3.80;;;20.00;93.90;;;;;;5080753;28;20058;-81
2023/07/25 03:50:22;;;;;;;8.73;3.83;;;20.00;93.90;;;;;;5081480;28;20519;-80
2023/07/25 03:52:47;;;;;;;8.23;3.58;;;20.00;93.90;;;;;;5076771;28;20023;-81
2023/07/25 03:55:13;;;;;;;10.75;4.20;;;20.00;93.90;;;;;;5080514;28;20085;-80
2023/07/25 03:57:39;;;;;;;11.70;4.03;;;20.00;93.90;;;;;;5082999;28;20016;-80
2023/07/25 04:00:05;;;;;;;6.97;3.83;;;20.00;94.00;;;;;;5082406;28;20107;-80
2023/07/25 04:02:30;;;;;;;11.35;3.95;;;20.00;93.90;;;;;;5082563;28;20023;-80
2023/07/25 04:04:56;;;;;;;7.07;3.75;;;20.00;94.00;;;;;;5080841;28;20029;-80
2023/07/25 04:07:22;;;;;;;7.47;4.20;;;20.00;93.90;;;;;;5082875;28;20039;-81
2023/07/25 04:09:47;;;;;;;7.65;3.58;;;20.00;94.00;;;;;;5076022;28;20028;-80
2023/07/25 04:12:13;;;;;;;10.38;3.80;;;20.00;94.00;;;;;;5080734;28;20028;-81
2023/07/25 04:14:40;;;;;;;8.48;4.00;;;20.00;94.00;;;;;;5087355;28;20020;-81
2023/07/25 04:17:05;;;;;;;12.10;3.63;;;20.00;94.00;;;;;;5081126;28;20025;-80
2023/07/25 04:19:31;;;;;;;11.65;2.80;;;20.00;94.00;;;;;;5083399;28;20027;-80
2023/07/25 04:21:56;;;;;;;14.13;3.55;;;20.00;94.00;;;;;;5077308;28;20020;-80
2023/07/25 04:24:22;;;;;;;6.10;2.78;;;20.00;94.00;;;;;;5078505;28;20501;-81
2023/07/25 04:26:47;;;;;;;6.40;3.00;;;20.00;94.00;;;;;;5080841;28;20076;-80
2023/07/25 04:29:13;;;;;;;11.52;3.03;;;20.00;94.00;;;;;;5086479;28;20019;-80
2023/07/25 04:31:39;;;;;;;14.38;2.60;;;20.00;94.00;;;;;;5082047;28;20543;-80
2023/07/25 04:34:04;;;;;;;7.60;2.95;;;20.00;93.90;;;;;;5079315;28;20016;-80
2023/07/25 04:36:30;;;;;;;15.70;3.72;;;20.00;93.90;;;;;;5079489;28;20060;-80
2023/07/25 04:38:56;;;;;;;11.07;3.53;;;20.00;94.00;;;;;;5086287;28;20469;-79
2023/07/25 04:41:22;;;;;;;8.63;3.60;;;20.00;93.90;;;;;;5076103;28;20033;-81
2023/07/25 04:43:48;;;;;;;15.48;3.80;;;20.00;93.90;;;;;;5077235;28;20027;-80
2023/07/25 04:46:13;;;;;;;15.55;3.70;;;20.00;93.90;;;;;;5085766;28;20028;-81
2023/07/25 04:48:39;;;;;;;15.07;5.20;;;19.90;94.00;;;;;;5078965;28;20021;-80
2023/07/25 04:51:04;;;;;;;9.05;4.10;;;20.00;94.10;;;;;;5077696;28;20207;-80
2023/07/25 04:53:30;;;;;;;7.97;4.32;;;19.90;94.40;;;;;;5078748;28;20024;-81
2023/07/25 04:55:56;;;;;;;11.00;4.95;;;19.90;94.00;;;;;;5074674;28;20029;-80
2023/07/25 04:58:21;;;;;;;11.00;4.57;;;19.90;94.00;;;;;;5075943;28;20025;-81
2023/07/25 05:00:47;;;;;;;12.02;5.18;;;20.00;94.00;;;;;;5083023;28;20012;-81
2023/07/25 05:03:12;;;;;;;16.27;5.05;;;20.00;94.00;;;;;;5084627;28;20043;-80
2023/07/25 05:05:38;;;;;;;21.83;5.78;;;19.90;93.90;;;;;;5081402;28;20024;-80
2023/07/25 05:08:04;;;;;;;16.52;6.05;;;20.00;94.00;;;;;;5081488;28;20028;-80
2023/07/25 05:10:31;;;;;;;15.63;6.13;;;20.00;94.00;;;;;;5081811;28;20035;-80
2023/07/25 05:12:56;;;;;;;15.68;7.15;;;20.00;94.00;;;;;;5083797;28;20035;-80
2023/07/25 05:15:23;;;;;;;17.88;7.65;;;20.00;94.00;;;;;;5086622;28;20032;-80
2023/07/25 05:17:48;;;;;;;14.57;6.93;;;19.90;94.00;;;;;;5087041;28;20390;-80
2023/07/25 05:20:14;;;;;;;15.88;7.10;;;20.00;94.00;;;;;;5080155;28;20035;-80
2023/07/25 05:22:40;;;;;;;18.58;6.95;;;20.00;94.00;;;;;;5087797;28;20042;-80
2023/07/25 05:25:06;;;;;;;18.90;7.07;;;20.00;94.00;;;;;;5085203;28;20030;-80
2023/07/25 05:27:31;;;;;;;14.23;7.13;;;20.00;94.10;;;;;;5088565;28;20040;-80
2023/07/25 05:29:57;;;;;;;21.30;7.97;;;20.00;94.10;;;;;;5087982;28;20024;-80
2023/07/25 05:32:23;;;;;;;19.38;5.80;;;20.00;94.00;;;;;;5088802;28;20472;-80
2023/07/25 05:34:48;;;;;;;21.65;6.82;;;20.00;94.10;;;;;;5082097;28;20480;-80
2023/07/25 05:37:18;;;;;;;19.30;6.68;;;20.00;94.10;;;;;;5082084;28;20031;-80
2023/07/25 05:39:44;;;;;;;;;;;20.00;94.10;;;;;;5077334;28;20023;-80
2023/07/25 05:42:10;;;;;;;8.93;5.43;;;20.00;94.10;;;;;;5077833;28;19911;-81
2023/07/25 05:44:35;;;;;;;11.35;4.35;;;20.00;94.10;;;;;;5082572;28;20020;-80
2023/07/25 05:47:05;;;;;;;12.75;4.57;;;20.00;94.10;;;;;;5088934;28;20028;-80
2023/07/25 05:49:30;;;;;;;9.88;4.75;;;20.00;94.20;;;;;;5085155;28;20068;-80
2023/07/25 05:51:56;;;;;;;12.95;5.53;;;20.00;94.20;;;;;;5082876;28;20062;-79
2023/07/25 05:54:22;;;;;;;10.55;4.90;;;20.00;94.10;;;;;;5086165;28;20025;-80
2023/07/25 05:56:47;;;;;;;9.07;4.90;;;20.00;94.10;;;;;;5082003;28;20077;-79
2023/07/25 05:59:13;;;;;;;8.40;4.65;;;20.00;94.20;;;;;;5086396;28;20480;-80
2023/07/25 06:01:39;;;;;;;10.88;4.78;;;20.00;94.20;;;;;;5086922;28;20024;-80
2023/07/25 06:04:05;;;;;;;11.35;4.18;;;20.00;94.20;;;;;;5087465;28;20034;-80
2023/07/25 06:06:31;;;;;;;8.23;3.80;;;20.00;94.20;;;;;;5085709;28;20024;-80
2023/07/25 06:08:56;;;;;;;12.07;4.20;;;20.00;94.20;;;;;;5088650;28;20040;-80
2023/07/25 06:11:23;;;;;;;9.85;4.13;;;20.00;94.20;;;;;;5084682;28;20701;-80
2023/07/25 06:13:49;;;;;;;13.65;3.80;;;20.00;94.20;;;;;;5083771;28;20078;-80
2023/07/25 06:16:18;;;;;;;6.05;4.10;;;20.00;94.20;;;;;;5086382;28;20024;-80
2023/07/25 06:18:43;;;;;;;5.88;3.53;;;20.00;94.20;;;;;;5085201;28;20028;-80
2023/07/25 06:21:09;;;;;;;10.95;4.28;;;20.00;94.20;;;;;;5081647;28;20028;-79
2023/07/25 06:23:35;;;;;;;8.02;3.67;;;20.00;94.20;;;;;;5080411;28;20032;-80
2023/07/25 06:26:01;;;;;;;6.45;3.90;;;19.90;94.20;;;;;;5082214;28;20027;-80
2023/07/25 06:28:26;;;;;;;8.35;4.10;;;20.00;94.20;;;;;;5078728;28;20032;-80
2023/07/25 06:30:52;;;;;;;9.48;4.18;;;20.00;94.20;;;;;;5082586;28;20482;-80
2023/07/25 06:33:18;;;;;;;10.30;3.45;;;20.00;94.20;;;;;;5081115;28;20024;-81
2023/07/25 06:35:43;;;;;;;11.10;3.78;;;20.00;94.30;;;;;;5082345;28;20023;-81
2023/07/25 06:38:09;;;;;;;14.50;4.47;;;20.00;94.30;;;;;;5078773;28;20032;-83
2023/07/25 06:40:35;;;;;;;8.48;2.03;;;20.00;94.30;;;;;;5084347;28;20020;-85
2023/07/25 06:43:00;;;;;;;6.40;1.77;;;19.90;94.30;;;;;;5084847;28;20119;-84
2023/07/25 06:45:26;;;;;;;4.15;1.88;;;19.90;94.30;;;;;;5079655;28;20028;-83
2023/07/25 06:47:52;;;;;;;3.38;1.60;;;19.90;94.30;;;;;;5083377;28;20118;-82
2023/07/25 06:50:18;;;;;;;2.50;1.50;;;19.90;94.30;;;;;;5083072;28;20032;-81
2023/07/25 06:52:43;;;;;;;3.55;1.55;;;19.90;94.20;;;;;;5085882;28;20031;-81
2023/07/25 06:55:09;;;;;;;5.72;1.90;;;19.90;94.10;;;;;;5084851;28;20017;-81
2023/07/25 06:57:34;;;;;;;7.05;1.90;;;19.90;94.00;;;;;;5084864;28;20473;-81
2023/07/25 07:00:00;;;;;;;5.22;1.75;;;19.90;94.00;;;;;;5085946;28;20469;-81
2023/07/25 07:02:25;;;;;;;3.42;1.85;;;19.90;94.00;;;;;;5091075;28;20053;-81
2023/07/25 07:04:51;;;;;;;3.95;1.95;;;19.90;94.00;;;;;;5084115;28;20051;-82
2023/07/25 07:07:17;;;;;;;3.45;1.73;;;19.90;93.90;;;;;;5089631;28;20626;-81
2023/07/25 07:09:43;;;;;;;5.32;1.92;;;19.90;94.00;;;;;;5091708;28;20036;-81
2023/07/25 07:12:08;;;;;;;2.78;1.75;;;19.90;94.00;;;;;;5085221;28;20026;-81
2023/07/25 07:14:34;;;;;;;4.95;1.98;;;19.90;94.00;;;;;;5085936;28;20584;-81
2023/07/25 07:16:59;;;;;;;2.95;1.75;;;19.90;94.00;;;;;;5080477;28;20025;-80
2023/07/25 07:19:25;;;;;;;3.47;2.05;;;19.90;94.00;;;;;;5084759;28;20082;-80
2023/07/25 07:21:51;;;;;;;4.78;2.42;;;19.90;94.00;;;;;;5090779;28;20027;-80
2023/07/25 07:24:16;;;;;;;4.43;2.20;;;19.90;94.00;;;;;;5078532;28;20369;-81
2023/07/25 07:26:42;;;;;;;3.03;2.00;;;19.90;94.00;;;;;;5080659;28;20078;-80
2023/07/25 07:29:09;;;;;;;6.93;2.00;;;19.90;94.00;;;;;;5094560;28;20027;-81
2023/07/25 07:31:35;;;;;;;3.60;1.67;;;19.90;94.40;;;;;;5085410;28;20086;-81
2023/07/25 07:34:13;;;;;;;4.53;2.15;;;19.90;94.10;;;;;;5081377;28;20024;-80
2023/07/25 07:36:38;;;;;;;3.95;2.08;;;19.90;94.10;;;;;;5091390;28;20024;-80
2023/07/25 07:39:04;;;;;;;3.25;1.70;;;19.90;94.10;;;;;;5083337;28;20035;-78
2023/07/25 07:41:30;;;;;;;9.07;2.42;;;19.90;94.10;;;;;;5087659;28;20020;-80
2023/07/25 07:43:55;;;;;;;4.20;2.97;;;19.90;94.10;;;;;;5088717;28;20477;-81
2023/07/25 07:46:21;;;;;;;7.82;3.13;;;19.90;94.10;;;;;;5078110;28;20125;-80
2023/07/25 07:48:46;;;;;;;4.47;2.72;;;19.90;94.10;;;;;;5080157;28;20484;-80
2023/07/25 07:51:12;;;;;;;6.65;3.08;;;19.90;94.10;;;;;;5081452;28;20036;-80
2023/07/25 07:53:38;;;;;;;10.75;3.70;;;19.90;94.20;;;;;;5081978;28;20047;-80
2023/07/25 07:56:10;;;;;;;9.75;3.25;;;19.90;94.20;;;;;;5079593;28;20024;-80
2023/07/25 07:58:36;;;;;;;6.70;3.00;;;19.90;94.20;;;;;;5084070;28;20495;-80
2023/07/25 08:01:02;;;;;;;16.20;3.42;;;19.90;94.20;;;;;;5082715;28;20037;-79
2023/07/25 08:03:27;;;;;;;6.03;3.40;;;19.90;94.20;;;;;;5079574;28;20070;-79
2023/07/25 08:05:59;;;;;;;8.05;3.05;;;20.00;94.30;;;;;;5078106;28;20021;-80
2023/07/25 08:08:24;;;;;;;6.65;2.63;;;20.00;94.30;;;;;;5079823;28;20037;-79
2023/07/25 08:10:50;;;;;;;4.85;2.78;;;19.90;94.30;;;;;;5081791;28;20039;-79
2023/07/25 08:13:15;;;;;;;13.60;2.83;;;20.00;94.40;;;;;;5082830;28;20078;-80
2023/07/25 08:15:41;;;;;;;5.65;2.28;;;19.90;94.30;;;;;;5080940;28;20028;-79
2023/07/25 08:18:07;;;;;;;6.53;2.78;;;19.90;94.30;;;;;;5084518;28;20052;-79
2023/07/25 08:20:32;;;;;;;5.80;2.83;;;20.00;94.40;;;;;;5082168;28;20476;-80
2023/07/25 08:22:58;;;;;;;3.17;2.33;;;19.90;94.40;;;;;;5082579;28;20550;-80
2023/07/25 08:25:24;;;;;;;5.78;2.67;;;19.90;94.40;;;;;;5086799;28;20016;-80
2023/07/25 08:27:49;;;;;;;5.70;2.22;;;19.90;94.40;;;;;;5085741;28;20024;-79
2023/07/25 08:30:15;;;;;;;6.38;2.70;;;19.90;94.40;;;;;;5091126;28;20492;-79
2023/07/25 08:32:40;;;;;;;3.67;2.35;;;20.00;94.40;;;;;;5088173;28;20023;-80
2023/07/25 08:35:06;;;;;;;6.10;2.53;;;20.00;94.50;;;;;;5084257;28;20466;-79
2023/07/25 08:37:32;;;;;;;4.68;2.20;;;19.90;94.40;;;;;;5086189;28;20115;-79
2023/07/25 08:39:58;;;;;;;5.88;2.75;;;20.00;94.50;;;;;;5079806;28;20036;-80
2023/07/25 08:42:26;;;;;;;8.88;2.85;;;19.90;94.50;;;;;;5083983;28;20372;-79
2023/07/25 08:44:54;;;;;;;4.50;2.88;;;20.00;94.50;;;;;;5083358;28;20172;-79
2023/07/25 08:47:27;;;;;;;4.32;2.50;;;19.90;94.50;;;;;;5084267;28;20055;-79
2023/07/25 08:49:55;;;;;;;5.07;2.55;;;19.90;94.50;;;;;;5087828;28;20411;-79
2023/07/25 08:52:24;;;;;;;9.48;2.75;;;19.90;94.50;;;;;;5083830;28;20534;-80
2023/07/25 08:54:50;;;;;;;4.30;2.60;;;19.90;94.50;;;;;;5085197;28;20485;-79
2023/07/25 08:57:18;;;;;;;6.03;2.63;;;19.90;94.50;;;;;;5085744;28;20059;-78
2023/07/25 08:59:47;;;;;;;4.82;2.55;;;19.90;94.60;;;;;;5083699;28;20024;-79
2023/07/25 09:02:13;;;;;;;6.18;3.10;;;19.90;94.60;;;;;;5086021;28;20024;-80
2023/07/25 09:04:39;;;;;;;3.95;2.17;;;19.90;94.50;;;;;;5082264;28;20122;-80
2023/07/25 09:07:05;;;;;;;4.75;2.42;;;19.90;94.70;;;;;;5087773;28;20116;-80
2023/07/25 09:09:31;;;;;;;2.80;2.13;;;19.90;94.70;;;;;;5086414;28;20388;-80
2023/07/25 09:11:57;;;;;;;2.75;1.90;;;19.90;94.70;;;;;;5084356;28;20025;-80
2023/07/25 09:14:23;;;;;;;7.72;2.30;;;19.90;94.70;;;;;;5084266;28;20024;-80
2023/07/25 09:16:48;;;;;;;6.75;1.90;;;19.90;94.70;;;;;;5081767;28;20381;-80
2023/07/25 09:19:14;;;;;;;8.45;2.17;;;19.90;94.80;;;;;;5080609;28;20024;-80
2023/07/25 09:21:48;;;;;;;9.57;2.30;;;19.90;94.80;;;;;;5090644;28;20376;-80
2023/07/25 09:24:14;;;;;;;3.88;2.08;;;19.90;94.80;;;;;;5086506;28;20504;-80
2023/07/25 09:26:46;;;;;;;4.72;2.10;;;19.90;94.80;;;;;;5085082;28;20059;-80
2023/07/25 09:29:12;;;;;;;3.92;1.88;;;19.90;94.80;;;;;;5084305;28;20456;-79
2023/07/25 09:31:44;;;;;;;5.38;1.95;;;19.90;94.80;;;;;;5084192;28;20111;-79
2023/07/25 09:34:19;;;;;;;5.13;1.80;;;19.90;94.80;;;;;;5080416;28;20083;-79
2023/07/25 09:36:47;;;;;;;5.38;2.17;;;19.90;94.80;;;;;;5084990;28;20107;-79
2023/07/25 09:39:13;;;;;;;5.60;1.75;;;19.90;94.80;;;;;;5084023;28;20028;-79
2023/07/25 09:41:39;;;;;;;5.55;1.88;;;19.90;94.80;;;;;;5084790;28;20107;-79
2023/07/25 09:44:07;;;;;;;3.95;1.80;;;19.90;94.80;;;;;;5085458;28;20062;-78
2023/07/25 09:46:33;;;;;;;5.75;2.30;;;19.90;94.80;;;;;;5086452;28;20096;-79
2023/07/25 09:48:59;;;;;;;4.70;1.67;;;19.90;94.80;;;;;;5092691;28;20060;-79
2023/07/25 09:51:25;;;;;;;3.58;1.83;;;19.90;94.80;;;;;;5086872;28;20047;-79
2023/07/25 09:53:55;;;;;;;3.00;1.83;;;19.90;94.90;;;;;;5090586;28;20025;-79
2023/07/25 09:56:23;;;;;;;6.03;2.00;;;19.90;94.80;;;;;;5090527;28;20024;-79
2023/07/25 09:58:52;;;;;;;3.40;1.60;;;19.90;94.80;;;;;;5092155;28;20366;-79
2023/07/25 10:01:19;;;;;;;3.85;1.85;;;20.00;94.90;;;;;;5083020;28;20036;-79
2023/07/25 10:03:45;;;;;;;3.00;1.65;;;19.90;94.90;;;;;;5083045;28;20075;-79
2023/07/25 10:06:14;;;;;;;3.88;1.95;;;19.90;94.90;;;;;;5086623;28;20097;-79
2023/07/25 10:08:43;;;;;;;3.47;2.03;;;20.00;95.00;;;;;;5088684;28;20031;-79
2023/07/25 10:11:11;;;;;;;5.03;2.20;;;20.00;94.90;;;;;;5087319;28;20393;-79
2023/07/25 10:13:37;;;;;;;4.80;2.08;;;20.00;95.00;;;;;;5084388;28;20469;-79
2023/07/25 10:16:04;;;;;;;4.10;2.50;;;20.00;94.90;;;;;;5086248;28;20031;-79
2023/07/25 10:18:33;;;;;;;6.95;3.35;;;20.00;94.90;;;;;;5083550;28;20020;-79
2023/07/25 10:20:59;;;;;;;6.27;2.30;;;20.00;94.90;;;;;;5082051;28;20028;-79
2023/07/25 10:23:34;;;;;;;6.63;2.63;;;20.00;95.00;;;;;;5084724;28;20372;-81
2023/07/25 10:26:20;;;;;;;13.85;3.03;;;20.00;95.10;;;;;;5090750;28;20021;-80
2023/07/25 10:29:29;;;;;;;8.40;2.40;;;20.00;95.10;;;;;;5089223;28;20031;-80
2023/07/25 10:31:55;;;;;;;6.70;1.80;;;20.00;95.10;;;;;;5083815;28;20040;-79
2023/07/25 10:34:20;;;;;;;3.90;1.85;;;20.00;95.20;;;;;;5078184;28;20090;-80
2023/07/25 10:36:46;;;;;;;6.78;2.20;;;20.00;95.20;;;;;;5074122;28;20051;-80
2023/07/25 10:39:25;;;;;;;3.40;2.15;;;20.00;95.20;;;;;;5083260;28;20051;-80
2023/07/25 10:41:53;;;;;;;3.42;1.85;;;20.00;95.30;;;;;;5085086;28;20020;-80
2023/07/25 10:44:37;;;;;;;4.78;1.77;;;20.00;95.20;;;;;;5085306;28;20105;-80
2023/07/25 10:47:42;;;;;;;4.57;1.90;;;20.10;95.30;;;;;;5082294;28;20017;-80
2023/07/25 10:50:07;;;;;;;3.80;1.77;;;20.10;95.30;;;;;;5077589;28;20569;-80
2023/07/25 10:52:46;;;;;;;9.10;2.17;;;20.10;95.10;;;;;;5078405;28;20025;-80
2023/07/25 10:55:13;;;;;;;3.13;1.88;;;20.10;95.10;;;;;;5083564;28;20106;-80
2023/07/25 10:57:38;;;;;;;5.13;1.80;;;20.10;95.00;;;;;;5090021;28;20024;-81
2023/07/25 11:00:10;;;;;;;3.88;1.63;;;20.10;95.00;;;;;;5082876;28;20028;-80
2023/07/25 11:02:37;;;;;;;3.78;1.77;;;20.10;95.10;;;;;;5083854;28;20031;-81
2023/07/25 11:05:12;;;;;;;3.85;1.98;;;20.20;95.10;;;;;;5079651;28;20469;-81
2023/07/25 11:07:47;;;;;;;4.13;2.10;;;20.20;95.10;;;;;;5080047;28;20480;-80
2023/07/25 11:10:34;;;;;;;6.82;2.00;;;20.20;95.00;;;;;;5086861;28;20031;-81
2023/07/25 11:13:01;;;;;;;3.70;1.83;;;20.20;95.30;;;;;;5088581;28;20446;-81
2023/07/25 11:15:29;;;;;;;3.30;1.67;;;20.20;95.00;;;;;;5086401;28;20052;-80
2023/07/25 11:17:55;;;;;;;4.28;1.67;;;20.20;95.10;;;;;;5083524;28;20024;-81
2023/07/25 11:20:23;;;;;;;4.57;1.85;;;20.20;95.20;;;;;;5080133;28;20085;-80
2023/07/25 11:22:50;;;;;;;3.72;1.45;;;20.10;95.00;;;;;;5075202;28;20120;-81
2023/07/25 11:25:16;;;;;;;5.38;1.88;;;20.10;95.10;;;;;;5083790;28;20103;-80
2023/07/25 11:27:43;;;;;;;2.72;1.65;;;20.10;95.10;;;;;;5088391;28;20035;-80
2023/07/25 11:30:20;;;;;;;4.80;1.83;;;20.10;95.40;;;;;;5087642;28;20043;-80
2023/07/25 11:32:50;;;;;;;3.17;1.73;;;20.10;95.10;;;;;;5083415;28;20020;-80
2023/07/25 11:35:16;;;;;;;4.10;2.08;;;20.10;95.00;;;;;;5082364;28;20064;-79
2023/07/25 11:37:46;;;;;;;5.25;2.03;;;20.10;95.10;;;;;;5082419;28;20077;-80
2023/07/25 11:40:20;;;;;;;4.32;1.98;;;20.10;95.10;;;;;;5081585;28;20020;-79
2023/07/25 11:42:48;;;;;;;2.15;1.63;;;20.10;95.00;;;;;;5082679;28;20028;-80
2023/07/25 11:45:15;;;;;;;3.78;1.30;;;20.10;95.10;;;;;;5086476;28;20024;-80
2023/07/25 11:47:42;;;;;;;4.45;1.63;;;20.10;95.00;;;;;;5084848;28;20024;-80
2023/07/25 11:50:09;;;;;;;4.65;1.70;;;20.10;95.00;;;;;;5087061;28;20482;-79
2023/07/25 11:52:38;;;;;;;10.43;1.60;;;20.20;95.10;;;;;;5088931;28;20443;-80
2023/07/25 11:55:04;;;;;;;2.72;1.70;;;20.20;95.00;;;;;;5084826;28;20034;-81
2023/07/25 11:57:30;;;;;;;9.88;1.90;;;20.20;95.00;;;;;;5089515;28;20107;-80
2023/07/25 11:59:56;;;;;;;4.20;1.70;;;20.20;95.00;;;;;;5088051;28;20012;-81
2023/07/25 12:02:26;;;;;;;5.25;1.83;;;20.20;95.00;;;;;;5085035;28;20077;-80
2023/07/25 12:04:52;;;;;;;2.87;1.33;;;20.20;95.10;;;;;;5084228;28;20016;-81
2023/07/25 12:07:18;;;;;;;6.38;1.58;;;20.30;95.10;;;;;;5086856;28;20737;-80
2023/07/25 12:09:53;;;;;;;1.83;1.48;;;20.30;95.20;;;;;;5085052;28;20036;-81
2023/07/25 12:12:22;;;;;;;7.22;1.60;;;20.30;95.10;;;;;;5087144;28;20024;-81
2023/07/25 12:15:00;;;;;;;6.13;1.52;;;20.30;95.00;;;;;;5085207;28;20058;-82
2023/07/25 12:17:42;;;;;;;2.30;1.00;;;20.30;95.00;;;;;;5084721;28;20024;-81
2023/07/25 12:20:19;;;;;;;4.13;1.13;;;20.30;95.00;;;;;;5082720;28;20477;-81
2023/07/25 12:22:46;;;;;;;6.15;1.88;;;20.30;95.00;;;;;;5086000;28;20146;-81
2023/07/25 12:25:16;;;;;;;3.55;1.40;;;20.20;95.10;;;;;;5085389;28;20073;-81
2023/07/25 12:27:48;;;;;;;5.78;1.50;;;20.20;95.00;;;;;;5086451;28;20543;-81
2023/07/25 12:30:15;;;;;;;3.25;1.20;;;20.20;95.00;;;;;;5079836;28;20173;-81
2023/07/25 12:32:41;;;;;;;1.00;0.90;;;20.20;95.00;;;;;;5082983;28;20047;-80
2023/07/25 12:35:08;;;;;;;1.55;1.30;;;20.20;95.00;;;;;;5083967;28;20032;-79
2023/07/25 12:37:34;;;;;;;2.05;1.45;;;20.20;95.00;;;;;;5085469;28;20027;-80
2023/07/25 12:39:59;;;;;;;3.15;1.30;;;20.20;95.00;;;;;;5085214;28;20020;-81
2023/07/25 12:42:25;;;;;;;2.05;1.10;;;20.20;94.90;;;;;;5083491;28;20085;-80
2023/07/25 12:44:50;;;;;;;1.40;1.02;;;20.20;95.00;;;;;;5082379;28;20103;-80